sensor_id;sensor_type;location;lat;lon;timestamp;pressure;altitude;pressure_sealevel;temperature;humidity
47524;BME280;33253;42.144;25.884;2022-11-20T00:01:24;100051.13;;;17.43;100.00
47524;BME280;33253;42.144;25.884;2022-11-20T00:03:51;100062.44;;;17.48;100.00
47524;BME280;33253;42.144;25.884;2022-11-20T00:06:18;100070.28;;;17.45;100.00
47524;BME280;33253;42.144;25.884;2022-11-20T00:08:44;100038.94;;;17.25;100.00
47524;BME280;33253;42.144;25.884;2022-11-20T00:11:15;100084.19;;;17.35;100.00
47524;BME280;33253;42.144;25.884;2022-11-20T00:13:45;100093.78;;;17.43;100.00
47524;BME280;33253;42.144;25.884;2022-11-20T00:16:13;100083.31;;;17.37;100.00
47524;BME280;33253;42.144;25.884;2022-11-20T00:18:38;100084.16;;;17.39;100.00
47524;BME280;33253;42.144;25.884;2022-11-20T00:21:11;100085.91;;;17.42;100.00
47524;BME280;33253;42.144;25.884;2022-11-20T00:23:37;100089.38;;;17.28;100.00
47524;BME280;33253;42.144;25.884;2022-11-20T00:26:04;100098.09;;;17.32;100.00
47524;BME280;33253;42.144;25.884;2022-11-20T00:28:30;100082.38;;;17.24;100.00
47524;BME280;33253;42.144;25.884;2022-11-20T00:31:05;100085.03;;;17.34;100.00
47524;BME280;33253;42.144;25.884;2022-11-20T00:33:32;100054.56;;;17.26;100.00
47524;BME280;33253;42.144;25.884;2022-11-20T00:36:05;100039.81;;;17.28;100.00
47524;BME280;33253;42.144;25.884;2022-11-20T00:38:31;100070.25;;;17.42;100.00
47524;BME280;33253;42.144;25.884;2022-11-20T00:40:58;100070.28;;;17.48;100.00
47524;BME280;33253;42.144;25.884;2022-11-20T00:43:25;100033.72;;;17.31;100.00
47524;BME280;33253;42.144;25.884;2022-11-20T00:45:51;100063.34;;;17.49;100.00
47524;BME280;33253;42.144;25.884;2022-11-20T00:48:20;100069.41;;;17.48;100.00
47524;BME280;33253;42.144;25.884;2022-11-20T00:50:46;100066.81;;;17.46;100.00
47524;BME280;33253;42.144;25.884;2022-11-20T00:53:11;100098.13;;;17.46;100.00
47524;BME280;33253;42.144;25.884;2022-11-20T00:55:37;100098.09;;;17.43;100.00
47524;BME280;33253;42.144;25.884;2022-11-20T00:58:02;100089.41;;;17.38;100.00
47524;BME280;33253;42.144;25.884;2022-11-20T01:00:28;100098.97;;;17.40;100.00
47524;BME280;33253;42.144;25.884;2022-11-20T01:02:55;100078.06;;;17.28;100.00
47524;BME280;33253;42.144;25.884;2022-11-20T01:05:21;100098.97;;;17.37;100.00
47524;BME280;33253;42.144;25.884;2022-11-20T01:07:46;100071.91;;;17.10;100.00
47524;BME280;33253;42.144;25.884;2022-11-20T01:10:12;100109.38;;;17.33;100.00
47524;BME280;33253;42.144;25.884;2022-11-20T01:12:37;100105.03;;;17.28;100.00
47524;BME280;33253;42.144;25.884;2022-11-20T01:15:03;100102.41;;;17.24;100.00
47524;BME280;33253;42.144;25.884;2022-11-20T01:17:28;100105.00;;;17.25;100.00
47524;BME280;33253;42.144;25.884;2022-11-20T01:20:00;100095.41;;;17.13;100.00
47524;BME280;33253;42.144;25.884;2022-11-20T01:22:31;100102.34;;;17.13;100.00
47524;BME280;33253;42.144;25.884;2022-11-20T01:24:56;100091.03;;;17.06;100.00
47524;BME280;33253;42.144;25.884;2022-11-20T01:27:22;100089.28;;;17.07;100.00
47524;BME280;33253;42.144;25.884;2022-11-20T01:29:47;100063.09;;;16.85;100.00
47524;BME280;33253;42.144;25.884;2022-11-20T01:32:13;100089.25;;;16.99;100.00
47524;BME280;33253;42.144;25.884;2022-11-20T01:34:38;100079.69;;;16.95;100.00
47524;BME280;33253;42.144;25.884;2022-11-20T01:37:03;100075.25;;;16.88;100.00
47524;BME280;33253;42.144;25.884;2022-11-20T01:39:29;100076.09;;;16.80;100.00
47524;BME280;33253;42.144;25.884;2022-11-20T01:41:55;100070.84;;;16.71;100.00
47524;BME280;33253;42.144;25.884;2022-11-20T01:44:58;100082.16;;;16.75;100.00
47524;BME280;33253;42.144;25.884;2022-11-20T01:47:31;100052.50;;;16.56;100.00
47524;BME280;33253;42.144;25.884;2022-11-20T01:50:06;100083.03;;;16.75;100.00
47524;BME280;33253;42.144;25.884;2022-11-20T01:53:09;100079.56;;;16.76;100.00
47524;BME280;33253;42.144;25.884;2022-11-20T01:55:41;100056.84;;;16.58;100.00
47524;BME280;33253;42.144;25.884;2022-11-20T01:58:07;100085.63;;;16.78;100.00
47524;BME280;33253;42.144;25.884;2022-11-20T02:00:33;100045.56;;;16.59;100.00
47524;BME280;33253;42.144;25.884;2022-11-20T02:03:04;100071.75;;;16.78;100.00
47524;BME280;33253;42.144;25.884;2022-11-20T02:06:05;100077.88;;;16.86;100.00
47524;BME280;33253;42.144;25.884;2022-11-20T02:08:33;100069.16;;;16.86;100.00
47524;BME280;33253;42.144;25.884;2022-11-20T02:10:59;100049.13;;;16.77;100.00
47524;BME280;33253;42.144;25.884;2022-11-20T02:13:25;100061.34;;;16.82;100.00
47524;BME280;33253;42.144;25.884;2022-11-20T02:16:17;100062.19;;;16.83;100.00
47524;BME280;33253;42.144;25.884;2022-11-20T02:18:44;100067.44;;;16.86;100.00
47524;BME280;33253;42.144;25.884;2022-11-20T02:24:13;100067.44;;;16.88;100.00
47524;BME280;33253;42.144;25.884;2022-11-20T02:26:48;100050.06;;;16.88;100.00
47524;BME280;33253;42.144;25.884;2022-11-20T02:29:18;100051.84;;;16.97;100.00
47524;BME280;33253;42.144;25.884;2022-11-20T02:31:45;100040.56;;;17.00;100.00
47524;BME280;33253;42.144;25.884;2022-11-20T02:34:10;100053.66;;;17.07;100.00
47524;BME280;33253;42.144;25.884;2022-11-20T02:36:38;100018.84;;;17.08;100.00
47524;BME280;33253;42.144;25.884;2022-11-20T02:39:05;100020.63;;;17.22;100.00
47524;BME280;33253;42.144;25.884;2022-11-20T02:41:35;100030.25;;;17.34;100.00
47524;BME280;33253;42.144;25.884;2022-11-20T02:44:02;100036.31;;;17.36;100.00
47524;BME280;33253;42.144;25.884;2022-11-20T02:46:29;100036.34;;;17.39;100.00
47524;BME280;33253;42.144;25.884;2022-11-20T02:48:54;100041.56;;;17.48;100.00
47524;BME280;33253;42.144;25.884;2022-11-20T02:51:20;100032.00;;;17.45;100.00
47524;BME280;33253;42.144;25.884;2022-11-20T02:53:45;100039.84;;;17.42;100.00
47524;BME280;33253;42.144;25.884;2022-11-20T02:56:11;100046.78;;;17.40;100.00
47524;BME280;33253;42.144;25.884;2022-11-20T02:58:36;100017.16;;;17.13;100.00
47524;BME280;33253;42.144;25.884;2022-11-20T03:01:02;100051.97;;;17.29;100.00
47524;BME280;33253;42.144;25.884;2022-11-20T03:03:27;100055.47;;;17.30;100.00
47524;BME280;33253;42.144;25.884;2022-11-20T03:05:52;100052.84;;;17.32;100.00
47524;BME280;33253;42.144;25.884;2022-11-20T03:08:18;100059.81;;;17.36;100.00
47524;BME280;33253;42.144;25.884;2022-11-20T03:10:43;100062.44;;;17.39;100.00
47524;BME280;33253;42.144;25.884;2022-11-20T03:13:09;100055.47;;;17.39;100.00
47524;BME280;33253;42.144;25.884;2022-11-20T03:15:36;100061.56;;;17.41;100.00
47524;BME280;33253;42.144;25.884;2022-11-20T03:18:02;100070.28;;;17.37;100.00
47524;BME280;33253;42.144;25.884;2022-11-20T03:20:28;100070.25;;;17.36;100.00
47524;BME280;33253;42.144;25.884;2022-11-20T03:22:54;100067.66;;;17.39;100.00
47524;BME280;33253;42.144;25.884;2022-11-20T03:25:19;100065.94;;;17.41;100.00
47524;BME280;33253;42.144;25.884;2022-11-20T03:27:45;100057.19;;;17.34;100.00
47524;BME280;33253;42.144;25.884;2022-11-20T03:30:10;100072.00;;;17.40;100.00
47524;BME280;33253;42.144;25.884;2022-11-20T03:32:36;100061.56;;;17.34;100.00
47524;BME280;33253;42.144;25.884;2022-11-20T03:35:01;100056.34;;;17.35;100.00
47524;BME280;33253;42.144;25.884;2022-11-20T03:37:27;100071.13;;;17.30;100.00
47524;BME280;33253;42.144;25.884;2022-11-20T03:39:52;100068.50;;;17.32;100.00
47524;BME280;33253;42.144;25.884;2022-11-20T03:42:18;100068.47;;;17.27;100.00
47524;BME280;33253;42.144;25.884;2022-11-20T03:45:02;100080.66;;;17.26;100.00
47524;BME280;33253;42.144;25.884;2022-11-20T03:47:27;100061.50;;;17.24;100.00
47524;BME280;33253;42.144;25.884;2022-11-20T03:49:53;100070.19;;;17.23;100.00
47524;BME280;33253;42.144;25.884;2022-11-20T03:52:19;100076.31;;;17.24;100.00
47524;BME280;33253;42.144;25.884;2022-11-20T03:54:44;100076.31;;;17.22;100.00
47524;BME280;33253;42.144;25.884;2022-11-20T03:57:09;100076.31;;;17.22;100.00
47524;BME280;33253;42.144;25.884;2022-11-20T03:59:35;100064.16;;;17.26;100.00
47524;BME280;33253;42.144;25.884;2022-11-20T04:02:00;100058.06;;;17.22;100.00
47524;BME280;33253;42.144;25.884;2022-11-20T04:04:25;100064.13;;;17.23;100.00
47524;BME280;33253;42.144;25.884;2022-11-20T04:06:51;100057.19;;;17.26;100.00
47524;BME280;33253;42.144;25.884;2022-11-20T04:09:16;100051.09;;;17.27;100.00
47524;BME280;33253;42.144;25.884;2022-11-20T04:11:42;100052.84;;;17.24;100.00
47524;BME280;33253;42.144;25.884;2022-11-20T04:14:14;100000.63;;;17.04;100.00
47524;BME280;33253;42.144;25.884;2022-11-20T04:16:40;100023.25;;;17.22;100.00
47524;BME280;33253;42.144;25.884;2022-11-20T04:19:09;100025.00;;;17.21;100.00
47524;BME280;33253;42.144;25.884;2022-11-20T04:21:36;100017.16;;;17.18;100.00
47524;BME280;33253;42.144;25.884;2022-11-20T04:24:02;100024.13;;;17.21;100.00
47524;BME280;33253;42.144;25.884;2022-11-20T04:26:29;100027.63;;;17.27;100.00
47524;BME280;33253;42.144;25.884;2022-11-20T04:28:55;100040.66;;;17.27;100.00
47524;BME280;33253;42.144;25.884;2022-11-20T04:31:23;100023.25;;;17.23;100.00
47524;BME280;33253;42.144;25.884;2022-11-20T04:33:49;100023.25;;;17.20;100.00
47524;BME280;33253;42.144;25.884;2022-11-20T04:36:17;100031.09;;;17.28;100.00
47524;BME280;33253;42.144;25.884;2022-11-20T04:38:43;100025.03;;;17.27;100.00
47524;BME280;33253;42.144;25.884;2022-11-20T04:41:16;100021.53;;;17.22;100.00
47524;BME280;33253;42.144;25.884;2022-11-20T04:43:41;100014.56;;;17.21;100.00
47524;BME280;33253;42.144;25.884;2022-11-20T04:46:10;100018.03;;;17.23;100.00
47524;BME280;33253;42.144;25.884;2022-11-20T04:48:36;100018.91;;;17.19;100.00
47524;BME280;33253;42.144;25.884;2022-11-20T04:51:05;100020.63;;;17.12;100.00
47524;BME280;33253;42.144;25.884;2022-11-20T04:53:31;99980.53;;;16.84;100.00
47524;BME280;33253;42.144;25.884;2022-11-20T04:56:04;100015.41;;;17.06;100.00
47524;BME280;33253;42.144;25.884;2022-11-20T04:58:31;100000.56;;;16.94;100.00
47524;BME280;33253;42.144;25.884;2022-11-20T05:01:04;100043.25;;;17.15;100.00
47524;BME280;33253;42.144;25.884;2022-11-20T05:03:30;100038.88;;;17.14;100.00
47524;BME280;33253;42.144;25.884;2022-11-20T05:05:56;100039.75;;;17.14;100.00
47524;BME280;33253;42.144;25.884;2022-11-20T05:08:24;100031.94;;;17.16;100.00
47524;BME280;33253;42.144;25.884;2022-11-20T05:10:50;100025.84;;;17.11;100.00
47524;BME280;33253;42.144;25.884;2022-11-20T05:13:15;100007.53;;;16.95;100.00
47524;BME280;33253;42.144;25.884;2022-11-20T05:15:40;100018.00;;;16.98;100.00
47524;BME280;33253;42.144;25.884;2022-11-20T05:18:06;100025.81;;;17.03;100.00
47524;BME280;33253;42.144;25.884;2022-11-20T05:20:32;100018.84;;;16.97;100.00
47524;BME280;33253;42.144;25.884;2022-11-20T05:22:58;100026.66;;;16.97;100.00
47524;BME280;33253;42.144;25.884;2022-11-20T05:25:23;100002.25;;;16.81;100.00
47524;BME280;33253;42.144;25.884;2022-11-20T05:27:49;100031.88;;;17.01;100.00
47524;BME280;33253;42.144;25.884;2022-11-20T05:30:14;100031.03;;;17.03;100.00
47524;BME280;33253;42.144;25.884;2022-11-20T05:32:40;100024.06;;;17.02;100.00
47524;BME280;33253;42.144;25.884;2022-11-20T05:35:06;100008.41;;;16.96;100.00
47524;BME280;33253;42.144;25.884;2022-11-20T05:37:31;100005.78;;;16.94;100.00
47524;BME280;33253;42.144;25.884;2022-11-20T05:39:57;99995.34;;;16.93;100.00
47524;BME280;33253;42.144;25.884;2022-11-20T05:42:22;99964.84;;;16.76;100.00
47524;BME280;33253;42.144;25.884;2022-11-20T05:45:01;99986.69;;;16.92;100.00
47524;BME280;33253;42.144;25.884;2022-11-20T05:47:30;99983.16;;;16.90;100.00
47524;BME280;33253;42.144;25.884;2022-11-20T05:49:56;99973.63;;;16.92;100.00
47524;BME280;33253;42.144;25.884;2022-11-20T05:52:21;99982.34;;;16.99;100.00
47524;BME280;33253;42.144;25.884;2022-11-20T05:54:47;99977.13;;;17.02;100.00
47524;BME280;33253;42.144;25.884;2022-11-20T05:57:12;99992.78;;;17.05;100.00
47524;BME280;33253;42.144;25.884;2022-11-20T05:59:38;99999.75;;;17.08;100.00
47524;BME280;33253;42.144;25.884;2022-11-20T06:02:03;100007.59;;;17.11;100.00
47524;BME280;33253;42.144;25.884;2022-11-20T06:04:29;100010.22;;;17.20;100.00
47524;BME280;33253;42.144;25.884;2022-11-20T06:06:54;100004.13;;;17.20;100.00
47524;BME280;33253;42.144;25.884;2022-11-20T06:09:19;100011.09;;;17.22;100.00
47524;BME280;33253;42.144;25.884;2022-11-20T06:11:45;100018.94;;;17.32;100.00
47524;BME280;33253;42.144;25.884;2022-11-20T06:14:10;99984.09;;;17.16;100.00
47524;BME280;33253;42.144;25.884;2022-11-20T06:16:36;100030.22;;;17.38;100.00
47524;BME280;33253;42.144;25.884;2022-11-20T06:19:01;100035.47;;;17.37;100.00
47524;BME280;33253;42.144;25.884;2022-11-20T06:21:27;100049.41;;;17.45;100.00
47524;BME280;33253;42.144;25.884;2022-11-20T06:23:53;100045.06;;;17.49;100.00
47524;BME280;33253;42.144;25.884;2022-11-20T06:26:26;100042.44;;;17.50;100.00
47524;BME280;33253;42.144;25.884;2022-11-20T06:28:53;100043.34;;;17.52;100.00
47524;BME280;33253;42.144;25.884;2022-11-20T06:31:21;100011.09;;;17.33;100.00
47524;BME280;33253;42.144;25.884;2022-11-20T06:33:47;100054.63;;;17.54;100.00
47524;BME280;33253;42.144;25.884;2022-11-20T06:36:15;100060.72;;;17.59;100.00
47524;BME280;33253;42.144;25.884;2022-11-20T06:38:41;100060.72;;;17.59;100.00
47524;BME280;33253;42.144;25.884;2022-11-20T06:41:11;100052.91;;;17.61;100.00
47524;BME280;33253;42.144;25.884;2022-11-20T06:43:37;100059.88;;;17.67;100.00
47524;BME280;33253;42.144;25.884;2022-11-20T06:46:03;100064.25;;;17.71;100.00
47524;BME280;33253;42.144;25.884;2022-11-20T06:48:28;100067.72;;;17.73;100.00
47524;BME280;33253;42.144;25.884;2022-11-20T06:50:54;100077.28;;;17.80;100.00
47524;BME280;33253;42.144;25.884;2022-11-20T06:53:20;100066.88;;;17.83;100.00
47524;BME280;33253;42.144;25.884;2022-11-20T06:55:46;100063.38;;;17.84;100.00
47524;BME280;33253;42.144;25.884;2022-11-20T06:58:13;100054.66;;;17.79;100.00
47524;BME280;33253;42.144;25.884;2022-11-20T07:00:39;100073.81;;;17.84;100.00
47524;BME280;33253;42.144;25.884;2022-11-20T07:03:06;100063.38;;;17.90;100.00
47524;BME280;33253;42.144;25.884;2022-11-20T07:05:32;100065.13;;;17.88;100.00
47524;BME280;33253;42.144;25.884;2022-11-20T07:07:58;100059.00;;;17.89;100.00
47524;BME280;33253;42.144;25.884;2022-11-20T07:10:24;100068.59;;;17.93;100.00
47524;BME280;33253;42.144;25.884;2022-11-20T07:12:50;100032.91;;;17.66;100.00
47524;BME280;33253;42.144;25.884;2022-11-20T07:15:19;100058.16;;;17.75;100.00
47524;BME280;33253;42.144;25.884;2022-11-20T07:17:45;100069.50;;;17.94;100.00
47524;BME280;33253;42.144;25.884;2022-11-20T07:20:10;100091.25;;;17.98;100.00
47524;BME280;33253;42.144;25.884;2022-11-20T07:22:36;100093.00;;;18.02;100.00
47524;BME280;33253;42.144;25.884;2022-11-20T07:25:02;100085.16;;;18.02;100.00
47524;BME280;33253;42.144;25.884;2022-11-20T07:27:28;100084.31;;;18.06;100.00
47524;BME280;33253;42.144;25.884;2022-11-20T07:29:55;100091.28;;;18.07;100.00
47524;BME280;33253;42.144;25.884;2022-11-20T07:32:21;100088.66;;;18.04;100.00
47524;BME280;33253;42.144;25.884;2022-11-20T07:34:46;100083.44;;;18.07;100.00
47524;BME280;33253;42.144;25.884;2022-11-20T07:37:12;100070.38;;;18.07;100.00
47524;BME280;33253;42.144;25.884;2022-11-20T07:39:38;100079.09;;;18.06;100.00
47524;BME280;33253;42.144;25.884;2022-11-20T07:42:03;100076.44;;;18.04;100.00
47524;BME280;33253;42.144;25.884;2022-11-20T07:44:28;100076.47;;;18.09;100.00
47524;BME280;33253;42.144;25.884;2022-11-20T07:46:54;100068.66;;;18.06;100.00
47524;BME280;33253;42.144;25.884;2022-11-20T07:49:19;100068.66;;;18.06;100.00
47524;BME280;33253;42.144;25.884;2022-11-20T07:51:45;100061.66;;;18.08;100.00
47524;BME280;33253;42.144;25.884;2022-11-20T07:54:10;100064.28;;;18.06;100.00
47524;BME280;33253;42.144;25.884;2022-11-20T07:56:35;100075.63;;;18.07;100.00
47524;BME280;33253;42.144;25.884;2022-11-20T07:59:01;100065.16;;;18.08;100.00
47524;BME280;33253;42.144;25.884;2022-11-20T08:01:26;100027.66;;;17.89;100.00
47524;BME280;33253;42.144;25.884;2022-11-20T08:03:52;100056.44;;;18.11;100.00
47524;BME280;33253;42.144;25.884;2022-11-20T08:06:17;100049.47;;;18.18;100.00
47524;BME280;33253;42.144;25.884;2022-11-20T08:08:44;100051.22;;;18.16;100.00
47524;BME280;33253;42.144;25.884;2022-11-20T08:11:10;100049.47;;;18.15;100.00
47524;BME280;33253;42.144;25.884;2022-11-20T08:13:54;100052.97;;;18.14;100.00
47524;BME280;33253;42.144;25.884;2022-11-20T08:16:47;100059.06;;;18.16;100.00
47524;BME280;33253;42.144;25.884;2022-11-20T08:19:15;100057.28;;;18.19;100.00
47524;BME280;33253;42.144;25.884;2022-11-20T08:21:41;100064.25;;;18.25;100.00
47524;BME280;33253;42.144;25.884;2022-11-20T08:24:07;100061.66;;;18.30;100.00
47524;BME280;33253;42.144;25.884;2022-11-20T08:26:33;100061.63;;;18.33;100.00
47524;BME280;33253;42.144;25.884;2022-11-20T08:28:59;100058.19;;;18.31;100.00
47524;BME280;33253;42.144;25.884;2022-11-20T08:31:26;100052.03;;;18.38;100.00
47524;BME280;33253;42.144;25.884;2022-11-20T08:33:52;100057.28;;;18.41;100.00
47524;BME280;33253;42.144;25.884;2022-11-20T08:36:18;100055.53;;;18.45;100.00
47524;BME280;33253;42.144;25.884;2022-11-20T08:38:52;100068.59;;;18.48;100.00
47524;BME280;33253;42.144;25.884;2022-11-20T08:41:19;100071.19;;;18.52;100.00
47524;BME280;33253;42.144;25.884;2022-11-20T08:43:56;100066.81;;;18.53;100.00
47524;BME280;33253;42.144;25.884;2022-11-20T08:46:23;100070.31;;;18.61;100.00
47524;BME280;33253;42.144;25.884;2022-11-20T08:48:49;100075.53;;;18.63;100.00
47524;BME280;33253;42.144;25.884;2022-11-20T08:51:15;100045.06;;;18.48;100.00
47524;BME280;33253;42.144;25.884;2022-11-20T08:53:41;100058.09;;;18.69;100.00
47524;BME280;33253;42.144;25.884;2022-11-20T08:56:07;100034.56;;;18.62;100.00
47524;BME280;33253;42.144;25.884;2022-11-20T08:58:33;100056.31;;;18.71;100.00
47524;BME280;33253;42.144;25.884;2022-11-20T09:00:58;100048.47;;;18.71;100.00
47524;BME280;33253;42.144;25.884;2022-11-20T09:03:24;100043.28;;;18.67;100.00
47524;BME280;33253;42.144;25.884;2022-11-20T09:05:59;100052.84;;;18.72;100.00
47524;BME280;33253;42.144;25.884;2022-11-20T09:08:25;100052.84;;;18.71;100.00
47524;BME280;33253;42.144;25.884;2022-11-20T09:10:54;100039.78;;;18.71;100.00
47524;BME280;33253;42.144;25.884;2022-11-20T09:13:24;100050.22;;;18.75;100.00
47524;BME280;33253;42.144;25.884;2022-11-20T09:16:08;100045.88;;;18.74;100.00
47524;BME280;33253;42.144;25.884;2022-11-20T09:18:35;100053.69;;;18.78;100.00
47524;BME280;33253;42.144;25.884;2022-11-20T09:21:06;100042.34;;;18.74;100.00
47524;BME280;33253;42.144;25.884;2022-11-20T09:23:34;100004.06;;;18.64;100.00
47524;BME280;33253;42.144;25.884;2022-11-20T09:26:13;100041.47;;;18.86;100.00
47524;BME280;33253;42.144;25.884;2022-11-20T09:28:39;100032.75;;;18.82;100.00
47524;BME280;33253;42.144;25.884;2022-11-20T09:31:09;100029.25;;;18.86;100.00
47524;BME280;33253;42.144;25.884;2022-11-20T09:33:39;100036.19;;;18.89;100.00
47524;BME280;33253;42.144;25.884;2022-11-20T09:36:05;100024.91;;;18.87;100.00
47524;BME280;33253;42.144;25.884;2022-11-20T09:38:50;100031.88;;;18.94;100.00
47524;BME280;33253;42.144;25.884;2022-11-20T09:44:33;100017.06;;;18.93;100.00
47524;BME280;33253;42.144;25.884;2022-11-20T09:47:01;100007.47;;;18.92;100.00
47524;BME280;33253;42.144;25.884;2022-11-20T09:55:14;99989.19;;;18.80;100.00
47524;BME280;33253;42.144;25.884;2022-11-20T09:57:42;99988.25;;;18.88;100.00
47524;BME280;33253;42.144;25.884;2022-11-20T10:00:12;99996.13;;;18.87;100.00
47524;BME280;33253;42.144;25.884;2022-11-20T10:03:03;100010.94;;;18.89;100.00
47524;BME280;33253;42.144;25.884;2022-11-20T10:06:02;99980.44;;;18.87;100.00
47524;BME280;33253;42.144;25.884;2022-11-20T10:16:21;100002.25;;;18.75;100.00
47524;BME280;33253;42.144;25.884;2022-11-20T10:21:30;99991.81;;;18.75;100.00
47524;BME280;33253;42.144;25.884;2022-11-20T10:29:32;99985.66;;;18.88;100.00
47524;BME280;33253;42.144;25.884;2022-11-20T10:32:13;99974.28;;;18.99;100.00
47524;BME280;33253;42.144;25.884;2022-11-20T10:37:24;99966.41;;;19.05;100.00
47524;BME280;33253;42.144;25.884;2022-11-20T10:42:43;99925.38;;;19.13;100.00
47524;BME280;33253;42.144;25.884;2022-11-20T10:47:36;99947.03;;;19.32;100.00
47524;BME280;33253;42.144;25.884;2022-11-20T10:50:04;99981.75;;;19.56;100.00
47524;BME280;33253;42.144;25.884;2022-11-20T11:00:43;99972.81;;;19.85;98.69
47524;BME280;33253;42.144;25.884;2022-11-20T11:03:25;99937.13;;;19.70;98.52
47524;BME280;33253;42.144;25.884;2022-11-20T11:06:03;99965.81;;;19.90;98.71
47524;BME280;33253;42.144;25.884;2022-11-20T11:08:35;99970.16;;;19.90;99.22
47524;BME280;33253;42.144;25.884;2022-11-20T11:11:15;99949.25;;;19.86;99.29
47524;BME280;33253;42.144;25.884;2022-11-20T11:13:43;99943.16;;;19.83;99.57
47524;BME280;33253;42.144;25.884;2022-11-20T11:16:23;99947.50;;;19.85;99.74
47524;BME280;33253;42.144;25.884;2022-11-20T11:18:49;99942.28;;;19.79;99.24
47524;BME280;33253;42.144;25.884;2022-11-20T11:21:21;99933.53;;;19.79;98.74
47524;BME280;33253;42.144;25.884;2022-11-20T11:23:58;99929.19;;;19.76;99.67
47524;BME280;33253;42.144;25.884;2022-11-20T11:26:24;99941.47;;;19.72;99.79
47524;BME280;33253;42.144;25.884;2022-11-20T11:28:55;99945.84;;;19.72;98.37
47524;BME280;33253;42.144;25.884;2022-11-20T11:31:39;99943.25;;;19.67;99.48
47524;BME280;33253;42.144;25.884;2022-11-20T11:34:22;99930.22;;;19.63;100.00
47524;BME280;33253;42.144;25.884;2022-11-20T11:36:56;99923.25;;;19.59;100.00
47524;BME280;33253;42.144;25.884;2022-11-20T11:39:23;99916.25;;;19.61;100.00
47524;BME280;33253;42.144;25.884;2022-11-20T11:41:51;99915.38;;;19.63;99.84
47524;BME280;33253;42.144;25.884;2022-11-20T11:44:31;99917.97;;;19.65;99.14
47524;BME280;33253;42.144;25.884;2022-11-20T11:53:08;99893.50;;;19.67;100.00
47524;BME280;33253;42.144;25.884;2022-11-20T11:55:47;99876.94;;;19.65;99.55
47524;BME280;33253;42.144;25.884;2022-11-20T12:01:27;99869.97;;;19.64;99.12
47524;BME280;33253;42.144;25.884;2022-11-20T12:04:04;99875.16;;;19.67;99.05
47524;BME280;33253;42.144;25.884;2022-11-20T12:06:34;99872.50;;;19.72;98.58
47524;BME280;33253;42.144;25.884;2022-11-20T12:09:08;99881.22;;;19.74;98.63
47524;BME280;33253;42.144;25.884;2022-11-20T12:11:49;99874.19;;;19.76;98.00
47524;BME280;33253;42.144;25.884;2022-11-20T12:14:31;99876.81;;;19.76;97.56
47524;BME280;33253;42.144;25.884;2022-11-20T12:16:57;99876.84;;;19.78;98.23
47524;BME280;33253;42.144;25.884;2022-11-20T12:19:23;99874.22;;;19.75;98.42
47524;BME280;33253;42.144;25.884;2022-11-20T12:30:01;99874.25;;;19.73;96.59
47524;BME280;33253;42.144;25.884;2022-11-20T12:38:21;99903.50;;;20.17;95.07
47524;BME280;33253;42.144;25.884;2022-11-20T12:41:04;99884.25;;;20.19;95.28
47524;BME280;33253;42.144;25.884;2022-11-20T12:43:39;99850.41;;;19.99;95.16
47524;BME280;33253;42.144;25.884;2022-11-20T12:46:56;99871.91;;;20.28;93.38
47524;BME280;33253;42.144;25.884;2022-11-20T12:49:37;99881.47;;;20.32;94.09
47524;BME280;33253;42.144;25.884;2022-11-20T12:52:41;99877.97;;;20.33;94.19
47524;BME280;33253;42.144;25.884;2022-11-20T13:00:30;99878.13;;;20.20;92.96
47524;BME280;33253;42.144;25.884;2022-11-20T13:06:13;99878.13;;;20.20;92.42
47524;BME280;33253;42.144;25.884;2022-11-20T13:08:40;99875.56;;;20.14;92.05
47524;BME280;33253;42.144;25.884;2022-11-20T13:11:21;99873.88;;;20.10;92.75
47524;BME280;33253;42.144;25.884;2022-11-20T13:19:10;99829.59;;;19.82;94.63
47524;BME280;33253;42.144;25.884;2022-11-20T13:21:39;99860.00;;;20.00;94.16
47524;BME280;33253;42.144;25.884;2022-11-20T13:29:26;99855.66;;;19.99;94.25
47524;BME280;33253;42.144;25.884;2022-11-20T13:32:05;99855.72;;;19.93;94.63
47524;BME280;33253;42.144;25.884;2022-11-20T13:34:32;99858.31;;;19.95;95.00
47524;BME280;33253;42.144;25.884;2022-11-20T13:36:58;99867.00;;;20.00;94.50
47524;BME280;33253;42.144;25.884;2022-11-20T13:39:33;99860.91;;;19.99;94.66
47524;BME280;33253;42.144;25.884;2022-11-20T13:42:23;99876.56;;;20.04;94.39
47524;BME280;33253;42.144;25.884;2022-11-20T13:45:01;99869.66;;;19.97;94.46
47524;BME280;33253;42.144;25.884;2022-11-20T13:47:28;99854.81;;;19.99;94.92
47524;BME280;33253;42.144;25.884;2022-11-20T13:49:57;99866.16;;;19.98;93.72
47524;BME280;33253;42.144;25.884;2022-11-20T14:00:58;99861.88;;;19.91;93.20
47524;BME280;33253;42.144;25.884;2022-11-20T14:03:25;99847.91;;;19.92;93.29
47524;BME280;33253;42.144;25.884;2022-11-20T14:05:56;99869.81;;;19.81;93.31
47524;BME280;33253;42.144;25.884;2022-11-20T14:08:58;99852.34;;;19.79;93.73
47524;BME280;33253;42.144;25.884;2022-11-20T14:11:29;99852.41;;;19.74;94.69
47524;BME280;33253;42.144;25.884;2022-11-20T14:16:24;99840.28;;;19.65;94.83
47524;BME280;33253;42.144;25.884;2022-11-20T14:18:50;99848.13;;;19.64;95.39
47524;BME280;33253;42.144;25.884;2022-11-20T14:21:23;99810.88;;;19.38;95.61
47524;BME280;33253;42.144;25.884;2022-11-20T14:23:48;99842.13;;;19.55;95.93